LFLCLFLB

Guest
Details From LFLC - Clermont-Ferrand_Auvergne
To LFLB - Aix-Les-Bains
Flight Number -
Tags generated
Created
Modified
Stats Distance 114 nm / 211 km
Max Altitude 11,100 ft / 3,383 m
Waypoints 3
Social Downloads 2
Likes 0
Share

Download

Looking for another format? Having issues loading an existing format? Contact us
Advertisement - Login to hide

Notes

Basic altitude profile: - Ascent Rate: 1800ft/min - Ascent Speed: 145kts - Cruise Altitude: 14000ft - Cruise Speed: 320kts - Descent Rate: 1200ft/min - Descent Speed: 130kts Options: - Use NATs: no - Use PACOTS: yes - Use low airways: no - Use high airways: yes

Route

LFLC MEBAK LFLB

ID Type Via Altitude (ft/m) Position (lat/lon) Dist (leg/tot) Name
O LFLC APT - 0 / 0 45.78671 / 3.16997 - / 0 nm Clermont-Ferrand_Auvergne
MEBAK FIX - 11,100 / 3,383 45.70806 / 4.64889 62 / 62 nm
O LFLB APT - 0 / 0 45.63623 / 5.88090 51 / 114 nm Aix-Les-Bains

Altitude Profile

Advertisement - Login to hide

LFLC

Details ICAO LFLC (CFE)
Name Clermont-Ferrand Auvergne
Region France
Timezone Europe/Paris (UTC+2.0)
Stats Elevation 1,091 ft / 333 m (AMSL)
Location 45.786700° 3.169980°
Runways 1
Magnetic Variation 1.445° E

METAR

LFLC 231700Z AUTO 02004KT CAVOK 22/13 Q1020 NOSIG

Decode

TAF

TAF LFLC 231100Z 2312/2412 02005KT CAVOK TEMPO 2402/2409 3000 BR PROB40 2403/2408 0600 FG VV///

Decode

Departure Runways

ID Width Length Bearing (true/mag) Surface Threshold Overrun Markings Lighting
08 148 ft / 45 m 9,869 ft / 3,008 m 81.95° / 80.50° ASPHALT 0 ft / 0 m 0 ft / 0 m APP CENTERLINE EDGE THRESHOLD
26 148 ft / 45 m 9,869 ft / 3,008 m 261.98° / 260.53° ASPHALT 469 ft / 143 m 0 ft / 0 m PREC-APP CENTERLINE EDGE THRESHOLD ALSF-II TDZ

LFLB

Details ICAO LFLB (CMF)
Name Chambery Aix-les-Bains
Region France
Timezone Europe/Paris (UTC+2.0)
Stats Elevation 777 ft / 237 m (AMSL)
Location 45.636500° 5.880840°
Runways 2
Magnetic Variation 2.141° E

METAR

LFLB 231700Z AUTO 22001KT CAVOK 19/15 Q1020 NOSIG

Decode

TAF

TAF LFLB 231400Z 2315/2415 36004KT CAVOK TEMPO 2403/2408 1500 MIFG

Decode

Destination Runways

ID Width Length Bearing (true/mag) Surface Threshold Overrun Markings Lighting
18 148 ft / 45 m 6,636 ft / 2,023 m 176.75° / 174.61° ASPHALT 764 ft / 233 m 0 ft / 0 m PREC-APP EDGE THRESHOLD MALSF
18L 177 ft / 54 m 2,289 ft / 698 m 176.75° / 174.61° GRASS 0 ft / 0 m 0 ft / 0 m NONE
36 148 ft / 45 m 6,636 ft / 2,023 m 356.76° / 354.62° ASPHALT 453 ft / 138 m 0 ft / 0 m PREC-APP EDGE THRESHOLD
36R 177 ft / 54 m 2,289 ft / 698 m 356.75° / 354.61° GRASS 318 ft / 97 m 0 ft / 0 m NONE

Approach Navaids

Runway Type Ident Frequency Range Bearing (true/mag) Slope Elevation
18 LOC-ILS CY 109.50 MHz 18 nm / 33 km 176.76° / 174.62 ° - 777 ft / 237 m (AMSL)
18 GS CY 109.50 MHz 10 nm / 19 km 176.76° / 174.62 ° 4.46° 777 ft / 237 m (AMSL)
18 DME CY 109.50 MHz 27 nm / 50 km - - 779 ft / 237 m (AMSL)

Popular Alternatives